sensor_id;sensor_type;location;lat;lon;timestamp;temperature;humidity
41471;DHT22;27211;51.220;5.308;2023-06-22T12:21:01;22.00;99.90
41471;DHT22;27211;51.220;5.308;2023-06-22T12:23:30;22.10;99.90
41471;DHT22;27211;51.220;5.308;2023-06-22T12:25:59;22.20;99.90
41471;DHT22;27211;51.220;5.308;2023-06-22T12:28:29;22.20;99.90
41471;DHT22;27211;51.220;5.308;2023-06-22T12:30:58;22.10;99.90
41471;DHT22;27211;51.220;5.308;2023-06-22T12:33:26;22.10;99.90
41471;DHT22;27211;51.220;5.308;2023-06-22T12:35:55;22.20;99.90
41471;DHT22;27211;51.220;5.308;2023-06-22T12:38:24;22.10;99.90
41471;DHT22;27211;51.220;5.308;2023-06-22T12:40:52;22.10;99.90
41471;DHT22;27211;51.220;5.308;2023-06-22T12:43:20;21.90;99.90
41471;DHT22;27211;51.220;5.308;2023-06-22T12:45:48;21.90;99.90
41471;DHT22;27211;51.220;5.308;2023-06-22T12:48:16;22.00;99.90
41471;DHT22;27211;51.220;5.308;2023-06-22T12:50:44;22.10;99.90
41471;DHT22;27211;51.220;5.308;2023-06-22T12:53:13;22.00;99.90
41471;DHT22;27211;51.220;5.308;2023-06-22T12:55:43;22.10;99.90
41471;DHT22;27211;51.220;5.308;2023-06-22T12:58:11;22.00;99.90
41471;DHT22;27211;51.220;5.308;2023-06-22T13:00:40;22.10;99.90
41471;DHT22;27211;51.220;5.308;2023-06-22T13:03:09;22.10;99.90
41471;DHT22;27211;51.220;5.308;2023-06-22T13:05:39;21.90;99.90
41471;DHT22;27211;51.220;5.308;2023-06-22T13:08:08;21.80;99.90
41471;DHT22;27211;51.220;5.308;2023-06-22T13:10:36;21.70;99.90
41471;DHT22;27211;51.220;5.308;2023-06-22T13:13:05;21.70;99.90
41471;DHT22;27211;51.220;5.308;2023-06-22T13:15:33;21.60;99.90
41471;DHT22;27211;51.220;5.308;2023-06-22T13:18:01;21.70;99.90
41471;DHT22;27211;51.220;5.308;2023-06-22T13:20:29;21.70;99.90
41471;DHT22;27211;51.220;5.308;2023-06-22T13:23:00;21.60;99.90
41471;DHT22;27211;51.220;5.308;2023-06-22T13:25:27;21.70;99.90
41471;DHT22;27211;51.220;5.308;2023-06-22T13:27:56;21.80;99.90
41471;DHT22;27211;51.220;5.308;2023-06-22T13:30:27;21.70;99.90
41471;DHT22;27211;51.220;5.308;2023-06-22T13:32:57;21.60;99.90
41471;DHT22;27211;51.220;5.308;2023-06-22T13:35:28;21.50;99.90
41471;DHT22;27211;51.220;5.308;2023-06-22T13:40:31;21.40;99.90
41471;DHT22;27211;51.220;5.308;2023-06-22T13:42:59;21.20;99.90
41471;DHT22;27211;51.220;5.308;2023-06-22T13:45:27;21.20;99.90
41471;DHT22;27211;51.220;5.308;2023-06-22T13:47:55;21.00;99.90
41471;DHT22;27211;51.220;5.308;2023-06-22T13:50:23;21.00;99.90
41471;DHT22;27211;51.220;5.308;2023-06-22T13:52:51;20.80;99.90
41471;DHT22;27211;51.220;5.308;2023-06-22T13:55:19;20.80;99.90
41471;DHT22;27211;51.220;5.308;2023-06-22T13:57:47;20.80;99.90
41471;DHT22;27211;51.220;5.308;2023-06-22T14:00:15;20.80;99.90
41471;DHT22;27211;51.220;5.308;2023-06-22T14:02:43;20.90;99.90
41471;DHT22;27211;51.220;5.308;2023-06-22T14:05:12;20.80;99.90
41471;DHT22;27211;51.220;5.308;2023-06-22T14:07:40;20.80;99.90
41471;DHT22;27211;51.220;5.308;2023-06-22T14:10:07;20.80;99.90
41471;DHT22;27211;51.220;5.308;2023-06-22T14:12:36;20.70;99.90
41471;DHT22;27211;51.220;5.308;2023-06-22T14:15:04;20.70;99.90
41471;DHT22;27211;51.220;5.308;2023-06-22T14:17:32;20.70;99.90
41471;DHT22;27211;51.220;5.308;2023-06-22T14:20:00;20.80;99.90
41471;DHT22;27211;51.220;5.308;2023-06-22T14:22:28;20.70;99.90
41471;DHT22;27211;51.220;5.308;2023-06-22T14:25:04;20.70;99.90
41471;DHT22;27211;51.220;5.308;2023-06-22T14:27:31;20.70;99.90
41471;DHT22;27211;51.220;5.308;2023-06-22T14:29:59;20.70;99.90
41471;DHT22;27211;51.220;5.308;2023-06-22T14:32:30;20.60;99.90
41471;DHT22;27211;51.220;5.308;2023-06-22T14:34:58;20.50;99.90
41471;DHT22;27211;51.220;5.308;2023-06-22T14:37:26;20.60;99.90
41471;DHT22;27211;51.220;5.308;2023-06-22T14:40:02;20.50;99.90
41471;DHT22;27211;51.220;5.308;2023-06-22T14:42:29;20.50;99.90
41471;DHT22;27211;51.220;5.308;2023-06-22T14:44:57;20.50;99.90
41471;DHT22;27211;51.220;5.308;2023-06-22T14:47:25;20.40;99.90
41471;DHT22;27211;51.220;5.308;2023-06-22T14:49:53;20.60;99.90
41471;DHT22;27211;51.220;5.308;2023-06-22T14:52:21;20.50;99.90
41471;DHT22;27211;51.220;5.308;2023-06-22T14:54:51;20.40;99.90
41471;DHT22;27211;51.220;5.308;2023-06-22T14:57:19;20.50;99.90
41471;DHT22;27211;51.220;5.308;2023-06-22T14:59:48;20.50;99.90
41471;DHT22;27211;51.220;5.308;2023-06-22T15:02:16;20.60;99.90
41471;DHT22;27211;51.220;5.308;2023-06-22T15:04:43;20.60;99.90
41471;DHT22;27211;51.220;5.308;2023-06-22T15:07:11;20.50;99.90
41471;DHT22;27211;51.220;5.308;2023-06-22T15:09:38;20.50;99.90
41471;DHT22;27211;51.220;5.308;2023-06-22T15:12:08;20.40;99.90
41471;DHT22;27211;51.220;5.308;2023-06-22T15:14:38;20.40;99.90
41471;DHT22;27211;51.220;5.308;2023-06-22T15:17:10;20.40;99.90
41471;DHT22;27211;51.220;5.308;2023-06-22T15:19:39;20.30;99.90
41471;DHT22;27211;51.220;5.308;2023-06-22T15:22:07;20.30;99.90
41471;DHT22;27211;51.220;5.308;2023-06-22T15:24:35;20.20;99.90
41471;DHT22;27211;51.220;5.308;2023-06-22T15:27:03;20.20;99.90
41471;DHT22;27211;51.220;5.308;2023-06-22T15:29:31;20.20;99.90
41471;DHT22;27211;51.220;5.308;2023-06-22T15:32:00;20.40;99.90
41471;DHT22;27211;51.220;5.308;2023-06-22T15:34:28;20.50;99.90
41471;DHT22;27211;51.220;5.308;2023-06-22T15:36:56;20.50;99.90
41471;DHT22;27211;51.220;5.308;2023-06-22T15:39:23;20.40;99.90
41471;DHT22;27211;51.220;5.308;2023-06-22T15:41:52;20.30;99.90
41471;DHT22;27211;51.220;5.308;2023-06-22T15:44:22;20.30;99.90
41471;DHT22;27211;51.220;5.308;2023-06-22T15:46:50;20.40;99.90
41471;DHT22;27211;51.220;5.308;2023-06-22T15:49:25;20.40;99.90
41471;DHT22;27211;51.220;5.308;2023-06-22T15:51:53;20.30;99.90
41471;DHT22;27211;51.220;5.308;2023-06-22T15:54:28;20.40;99.90
41471;DHT22;27211;51.220;5.308;2023-06-22T15:57:04;20.40;99.90
41471;DHT22;27211;51.220;5.308;2023-06-22T15:59:31;20.40;99.90
41471;DHT22;27211;51.220;5.308;2023-06-22T16:01:59;20.50;99.90
41471;DHT22;27211;51.220;5.308;2023-06-22T16:04:27;20.40;99.90
41471;DHT22;27211;51.220;5.308;2023-06-22T16:06:55;20.30;99.90
41471;DHT22;27211;51.220;5.308;2023-06-22T16:09:24;20.30;99.90
41471;DHT22;27211;51.220;5.308;2023-06-22T16:11:52;20.10;99.90
41471;DHT22;27211;51.220;5.308;2023-06-22T16:14:19;20.20;99.90
41471;DHT22;27211;51.220;5.308;2023-06-22T16:16:47;20.40;99.90
41471;DHT22;27211;51.220;5.308;2023-06-22T16:19:15;20.50;99.90
41471;DHT22;27211;51.220;5.308;2023-06-22T16:21:42;20.60;99.90
41471;DHT22;27211;51.220;5.308;2023-06-22T16:24:09;20.50;99.90
41471;DHT22;27211;51.220;5.308;2023-06-22T16:26:41;20.30;99.90
41471;DHT22;27211;51.220;5.308;2023-06-22T16:29:11;20.30;99.90
41471;DHT22;27211;51.220;5.308;2023-06-22T16:31:38;20.60;99.90
41471;DHT22;27211;51.220;5.308;2023-06-22T16:34:06;20.40;99.90
41471;DHT22;27211;51.220;5.308;2023-06-22T16:36:36;20.30;99.90
41471;DHT22;27211;51.220;5.308;2023-06-22T16:39:04;20.30;99.90
41471;DHT22;27211;51.220;5.308;2023-06-22T16:41:32;20.30;99.90
41471;DHT22;27211;51.220;5.308;2023-06-22T16:44:00;20.20;99.90
41471;DHT22;27211;51.220;5.308;2023-06-22T16:46:33;20.20;99.90
41471;DHT22;27211;51.220;5.308;2023-06-22T16:49:01;20.20;99.90
41471;DHT22;27211;51.220;5.308;2023-06-22T16:51:28;20.30;99.90
41471;DHT22;27211;51.220;5.308;2023-06-22T16:53:56;20.50;99.90
41471;DHT22;27211;51.220;5.308;2023-06-22T16:56:25;20.50;99.90
41471;DHT22;27211;51.220;5.308;2023-06-22T16:58:52;20.30;99.90
41471;DHT22;27211;51.220;5.308;2023-06-22T17:01:20;20.40;99.90
41471;DHT22;27211;51.220;5.308;2023-06-22T17:03:50;20.50;99.90
41471;DHT22;27211;51.220;5.308;2023-06-22T17:06:20;20.70;99.90
41471;DHT22;27211;51.220;5.308;2023-06-22T17:08:48;20.60;99.90
41471;DHT22;27211;51.220;5.308;2023-06-22T17:11:15;20.50;99.90
41471;DHT22;27211;51.220;5.308;2023-06-22T17:13:51;20.50;99.90
41471;DHT22;27211;51.220;5.308;2023-06-22T17:16:28;20.50;99.90
41471;DHT22;27211;51.220;5.308;2023-06-22T17:18:57;20.50;99.90
41471;DHT22;27211;51.220;5.308;2023-06-22T17:21:29;20.50;99.90
41471;DHT22;27211;51.220;5.308;2023-06-22T17:24:00;20.40;99.90
41471;DHT22;27211;51.220;5.308;2023-06-22T17:26:27;20.40;99.90
41471;DHT22;27211;51.220;5.308;2023-06-22T17:28:55;20.60;99.90
41471;DHT22;27211;51.220;5.308;2023-06-22T17:31:36;20.60;99.90
41471;DHT22;27211;51.220;5.308;2023-06-22T17:34:10;20.60;99.90
41471;DHT22;27211;51.220;5.308;2023-06-22T17:36:41;20.50;99.90
41471;DHT22;27211;51.220;5.308;2023-06-22T17:39:11;20.60;99.90
41471;DHT22;27211;51.220;5.308;2023-06-22T17:41:38;20.70;99.90
41471;DHT22;27211;51.220;5.308;2023-06-22T17:46:50;20.50;99.90
41471;DHT22;27211;51.220;5.308;2023-06-22T17:49:18;20.70;99.90
41471;DHT22;27211;51.220;5.308;2023-06-22T17:51:49;20.80;99.90
41471;DHT22;27211;51.220;5.308;2023-06-22T17:54:16;20.80;99.90
41471;DHT22;27211;51.220;5.308;2023-06-22T17:56:47;20.80;99.90
41471;DHT22;27211;51.220;5.308;2023-06-22T17:59:14;20.70;99.90
41471;DHT22;27211;51.220;5.308;2023-06-22T18:01:42;20.80;99.90
41471;DHT22;27211;51.220;5.308;2023-06-22T18:04:11;20.70;99.90
41471;DHT22;27211;51.220;5.308;2023-06-22T18:06:45;20.80;99.90
41471;DHT22;27211;51.220;5.308;2023-06-22T18:09:13;20.70;99.90
41471;DHT22;27211;51.220;5.308;2023-06-22T18:11:45;20.60;99.90
41471;DHT22;27211;51.220;5.308;2023-06-22T18:14:15;20.50;99.90
41471;DHT22;27211;51.220;5.308;2023-06-22T18:16:47;20.40;99.90
41471;DHT22;27211;51.220;5.308;2023-06-22T18:19:15;20.50;99.90
41471;DHT22;27211;51.220;5.308;2023-06-22T18:21:46;20.60;99.90
41471;DHT22;27211;51.220;5.308;2023-06-22T18:24:16;20.60;99.90
41471;DHT22;27211;51.220;5.308;2023-06-22T18:26:44;20.60;99.90
41471;DHT22;27211;51.220;5.308;2023-06-22T18:29:11;20.50;99.90
41471;DHT22;27211;51.220;5.308;2023-06-22T18:31:39;20.80;99.90
41471;DHT22;27211;51.220;5.308;2023-06-22T18:34:08;20.90;99.90
41471;DHT22;27211;51.220;5.308;2023-06-22T18:36:55;20.80;99.90
41471;DHT22;27211;51.220;5.308;2023-06-22T18:39:23;20.40;99.90
41471;DHT22;27211;51.220;5.308;2023-06-22T18:41:52;20.50;99.90
41471;DHT22;27211;51.220;5.308;2023-06-22T18:44:26;20.30;99.90
41471;DHT22;27211;51.220;5.308;2023-06-22T18:46:57;20.30;99.90
41471;DHT22;27211;51.220;5.308;2023-06-22T18:49:30;20.20;99.90
41471;DHT22;27211;51.220;5.308;2023-06-22T18:54:38;20.40;99.90
41471;DHT22;27211;51.220;5.308;2023-06-22T18:57:27;20.30;99.90
41471;DHT22;27211;51.220;5.308;2023-06-22T19:02:41;20.10;99.90
41471;DHT22;27211;51.220;5.308;2023-06-22T22:11:07;18.90;99.90
41471;DHT22;27211;51.220;5.308;2023-06-22T22:13:36;18.80;99.90
41471;DHT22;27211;51.220;5.308;2023-06-22T22:16:03;18.90;99.90
41471;DHT22;27211;51.220;5.308;2023-06-22T22:18:31;18.70;99.90
41471;DHT22;27211;51.220;5.308;2023-06-22T22:20:59;18.60;99.90
41471;DHT22;27211;51.220;5.308;2023-06-22T22:23:27;18.70;99.90
41471;DHT22;27211;51.220;5.308;2023-06-22T22:25:54;18.70;99.90
41471;DHT22;27211;51.220;5.308;2023-06-22T22:28:22;18.80;99.90
41471;DHT22;27211;51.220;5.308;2023-06-22T22:30:50;18.70;99.90
41471;DHT22;27211;51.220;5.308;2023-06-22T22:33:24;18.60;99.90
41471;DHT22;27211;51.220;5.308;2023-06-22T22:35:59;18.70;99.90
41471;DHT22;27211;51.220;5.308;2023-06-22T22:38:29;18.60;99.90
41471;DHT22;27211;51.220;5.308;2023-06-22T22:41:01;18.80;99.90
41471;DHT22;27211;51.220;5.308;2023-06-22T22:43:28;18.80;99.90
41471;DHT22;27211;51.220;5.308;2023-06-22T22:45:56;18.60;99.90
41471;DHT22;27211;51.220;5.308;2023-06-22T22:48:23;18.60;99.90
41471;DHT22;27211;51.220;5.308;2023-06-22T22:50:51;18.70;99.90
41471;DHT22;27211;51.220;5.308;2023-06-22T22:53:19;18.70;99.90
41471;DHT22;27211;51.220;5.308;2023-06-22T22:55:46;18.60;99.90
41471;DHT22;27211;51.220;5.308;2023-06-22T22:58:14;18.50;99.90
41471;DHT22;27211;51.220;5.308;2023-06-22T23:00:48;18.50;99.90
41471;DHT22;27211;51.220;5.308;2023-06-22T23:03:15;18.40;99.90
41471;DHT22;27211;51.220;5.308;2023-06-22T23:05:48;18.50;99.90
